createdAt,value
2022-08-28T00:02:15.980Z,23.26
2022-08-28T00:04:42.433Z,23.33
2022-08-28T00:07:08.764Z,23.39
2022-08-28T00:09:35.220Z,23.28
2022-08-28T00:12:01.591Z,23.24
2022-08-28T00:14:28.088Z,23.09
2022-08-28T00:16:54.504Z,22.99
2022-08-28T00:19:20.871Z,23.02
2022-08-28T00:21:47.278Z,22.92
2022-08-28T00:24:13.645Z,22.86
2022-08-28T00:26:40.149Z,22.84
2022-08-28T00:29:06.516Z,22.85
2022-08-28T00:31:32.946Z,22.82
2022-08-28T00:33:59.269Z,22.76
2022-08-28T00:36:25.629Z,22.78
2022-08-28T00:38:51.991Z,22.87
2022-08-28T00:41:18.442Z,22.97
2022-08-28T00:43:44.874Z,22.87
2022-08-28T00:46:11.362Z,22.80
2022-08-28T00:48:37.695Z,22.84
2022-08-28T00:51:04.056Z,23.05
2022-08-28T00:53:33.069Z,23.07
2022-08-28T00:55:56.820Z,23.10
2022-08-28T00:58:23.266Z,23.11
2022-08-28T01:00:49.634Z,22.97
2022-08-28T01:03:16.034Z,23.04
2022-08-28T01:05:42.400Z,23.06
2022-08-28T01:08:08.875Z,23.02
2022-08-28T01:10:35.166Z,22.87
2022-08-28T01:13:01.664Z,22.78
2022-08-28T01:15:28.099Z,22.83
2022-08-28T01:17:54.520Z,22.69
2022-08-28T01:20:20.959Z,22.85
2022-08-28T01:22:47.378Z,22.84
2022-08-28T01:25:13.746Z,22.61
2022-08-28T01:27:40.109Z,22.43
2022-08-28T01:30:06.494Z,22.48
2022-08-28T01:32:32.920Z,22.52
2022-08-28T01:34:59.356Z,22.63
2022-08-28T01:37:25.717Z,22.48
2022-08-28T01:39:52.221Z,22.32
2022-08-28T01:42:18.550Z,22.30
2022-08-28T01:44:44.933Z,22.39
2022-08-28T01:47:11.317Z,22.34
2022-08-28T01:49:37.753Z,22.29
2022-08-28T01:52:04.112Z,22.26
2022-08-28T01:54:30.514Z,22.19
2022-08-28T01:56:56.903Z,22.16
2022-08-28T01:59:23.281Z,22.19
2022-08-28T02:01:49.755Z,22.08
2022-08-28T02:04:16.180Z,21.86
2022-08-28T02:06:42.504Z,21.98
2022-08-28T02:09:13.482Z,21.95
2022-08-28T02:11:35.362Z,21.86
2022-08-28T02:14:01.726Z,21.76
2022-08-28T02:16:28.139Z,21.85
2022-08-28T02:18:54.536Z,21.97
2022-08-28T02:21:20.958Z,22.04
2022-08-28T02:23:47.403Z,21.84
2022-08-28T02:26:13.768Z,21.68
2022-08-28T02:28:40.167Z,21.53
2022-08-28T02:31:06.648Z,21.42
2022-08-28T02:33:32.953Z,21.63
2022-08-28T02:35:59.316Z,21.90
2022-08-28T02:38:25.721Z,21.80
2022-08-28T02:40:52.082Z,21.57
2022-08-28T02:43:18.455Z,21.52
2022-08-28T02:45:44.888Z,21.40
2022-08-28T02:48:15.647Z,21.41
2022-08-28T02:50:37.703Z,21.46
2022-08-28T02:53:04.095Z,21.37
2022-08-28T02:55:34.102Z,21.24
2022-08-28T02:57:56.952Z,21.26
2022-08-28T03:00:23.320Z,21.27
2022-08-28T03:02:49.773Z,21.22
2022-08-28T03:05:16.071Z,21.48
2022-08-28T03:07:42.489Z,21.68
2022-08-28T03:10:08.869Z,21.74
2022-08-28T03:12:35.253Z,21.74
2022-08-28T03:15:01.675Z,21.85
2022-08-28T03:17:28.113Z,21.83
2022-08-28T03:19:54.535Z,21.84
2022-08-28T03:22:20.920Z,21.58
2022-08-28T03:24:47.297Z,21.44
2022-08-28T03:27:13.739Z,21.32
2022-08-28T03:29:40.098Z,21.09
2022-08-28T03:32:06.507Z,20.97
2022-08-28T03:34:32.890Z,21.01
2022-08-28T03:36:59.371Z,20.93
2022-08-28T03:39:25.733Z,20.91
2022-08-28T03:41:52.135Z,20.83
2022-08-28T03:44:18.496Z,20.72
2022-08-28T03:46:44.862Z,20.63
2022-08-28T03:49:11.328Z,20.61
2022-08-28T03:51:37.765Z,20.83
2022-08-28T03:54:04.129Z,20.85
2022-08-28T03:56:30.528Z,20.82
2022-08-28T03:58:56.893Z,20.78
2022-08-28T04:01:23.333Z,20.64
2022-08-28T04:03:49.678Z,20.69
2022-08-28T04:06:16.063Z,20.79
2022-08-28T04:08:42.445Z,20.66
2022-08-28T04:11:08.809Z,20.64
2022-08-28T04:13:35.194Z,20.69
2022-08-28T04:16:01.582Z,20.71
2022-08-28T04:18:27.962Z,20.70
2022-08-28T04:20:54.352Z,20.98
2022-08-28T04:23:20.711Z,21.35
2022-08-28T04:25:47.115Z,21.73
2022-08-28T04:28:13.581Z,22.06
2022-08-28T04:30:39.970Z,22.37
2022-08-28T04:33:06.335Z,22.41
2022-08-28T04:35:32.696Z,22.45
2022-08-28T04:37:59.189Z,22.57
2022-08-28T04:40:25.567Z,22.84
2022-08-28T04:42:51.881Z,23.02
2022-08-28T04:45:18.369Z,23.23
2022-08-28T04:47:44.787Z,23.66
2022-08-28T04:50:11.192Z,23.97
2022-08-28T04:52:37.555Z,23.98
2022-08-28T04:55:03.922Z,24.66
2022-08-28T04:57:34.418Z,25.10
2022-08-28T04:59:56.705Z,25.57
2022-08-28T05:02:23.199Z,25.93
2022-08-28T05:04:49.481Z,26.22
2022-08-28T05:07:15.952Z,26.13
2022-08-28T05:09:42.389Z,26.22
2022-08-28T05:12:08.793Z,26.43
2022-08-28T05:14:35.159Z,26.67
2022-08-28T05:17:01.584Z,26.26
2022-08-28T05:19:28.039Z,26.36
2022-08-28T05:21:54.408Z,26.39
2022-08-28T05:24:20.762Z,26.47
2022-08-28T05:26:48.234Z,26.67
2022-08-28T05:29:13.535Z,26.84
2022-08-28T05:31:40.039Z,27.06
2022-08-28T05:34:07.020Z,27.40
2022-08-28T05:36:33.219Z,27.65
2022-08-28T05:38:59.226Z,27.86
2022-08-28T05:41:25.616Z,28.15
2022-08-28T05:43:52.013Z,28.34
2022-08-28T05:46:18.524Z,28.37
2022-08-28T05:48:44.861Z,28.37
2022-08-28T05:51:11.241Z,28.32
2022-08-28T05:53:37.627Z,28.20
2022-08-28T05:56:03.995Z,27.81
2022-08-28T05:58:30.407Z,27.18
2022-08-28T06:00:56.871Z,27.61
2022-08-28T06:03:23.229Z,27.35
2022-08-28T06:05:49.633Z,27.82
2022-08-28T06:08:16.069Z,27.97
2022-08-28T06:10:42.434Z,28.12
2022-08-28T06:13:08.812Z,28.23
2022-08-28T06:15:35.266Z,28.09
2022-08-28T06:18:01.631Z,28.68
2022-08-28T06:20:28.039Z,28.93
2022-08-28T06:22:54.403Z,29.50
2022-08-28T06:25:20.789Z,28.96
2022-08-28T06:27:47.225Z,28.90
2022-08-28T06:30:13.621Z,29.38
2022-08-28T06:32:40.035Z,29.37
2022-08-28T06:35:06.422Z,29.21
2022-08-28T06:37:32.788Z,29.26
2022-08-28T06:39:59.169Z,29.26
2022-08-28T06:42:25.634Z,29.62
2022-08-28T06:44:52.051Z,30.10
2022-08-28T06:47:18.435Z,30.14
2022-08-28T06:49:44.800Z,30.60
2022-08-28T06:52:11.164Z,30.76
2022-08-28T06:54:37.584Z,31.03
2022-08-28T06:57:04.034Z,31.27
2022-08-28T06:59:30.419Z,31.14
2022-08-28T07:01:56.929Z,30.73
2022-08-28T07:04:23.180Z,31.18
2022-08-28T07:06:53.654Z,31.26
2022-08-28T07:09:16.039Z,31.17
2022-08-28T07:11:42.406Z,31.54
2022-08-28T07:14:08.838Z,31.45
2022-08-28T07:16:35.220Z,31.64
2022-08-28T07:19:01.732Z,31.78
2022-08-28T07:21:28.090Z,31.98
2022-08-28T07:23:54.514Z,32.11
2022-08-28T07:26:20.877Z,32.06
2022-08-28T07:28:47.260Z,32.17
2022-08-28T07:31:13.679Z,32.55
2022-08-28T07:33:40.026Z,32.66
2022-08-28T07:36:06.428Z,32.76
2022-08-28T07:38:32.873Z,33.13
2022-08-28T07:40:59.299Z,33.05
2022-08-28T07:43:25.731Z,33.15
2022-08-28T07:45:52.124Z,33.54
2022-08-28T07:48:21.368Z,33.46
2022-08-28T07:50:44.964Z,33.75
2022-08-28T07:53:11.332Z,34.08
2022-08-28T07:55:37.731Z,34.43
2022-08-28T07:58:04.125Z,34.76
2022-08-28T08:00:30.479Z,34.39
2022-08-28T08:02:56.888Z,34.45
2022-08-28T08:05:23.321Z,34.24
2022-08-28T08:07:49.685Z,34.54
2022-08-28T08:10:20.747Z,34.97
2022-08-28T08:12:42.516Z,34.44
2022-08-28T08:15:08.946Z,34.57
2022-08-28T08:17:35.320Z,34.39
2022-08-28T08:20:01.685Z,34.50
2022-08-28T08:22:28.109Z,34.70
2022-08-28T08:24:54.485Z,34.35
2022-08-28T08:27:20.859Z,34.39
2022-08-28T08:29:47.340Z,34.85
2022-08-28T08:32:13.766Z,34.78
2022-08-28T08:34:40.136Z,34.69
2022-08-28T08:37:06.536Z,34.85
2022-08-28T08:39:32.890Z,35.47
2022-08-28T08:41:59.259Z,35.29
2022-08-28T08:44:34.077Z,35.14
2022-08-28T08:46:52.040Z,35.46
2022-08-28T08:49:18.398Z,35.83
2022-08-28T08:51:44.776Z,35.72
2022-08-28T08:54:11.135Z,36.24
2022-08-28T08:56:37.543Z,36.36
2022-08-28T08:59:03.934Z,36.69
2022-08-28T09:01:30.407Z,36.08
2022-08-28T09:03:56.763Z,36.66
2022-08-28T09:06:23.080Z,36.38
2022-08-28T09:08:49.465Z,36.79
2022-08-28T09:11:15.878Z,37.16
2022-08-28T09:13:42.281Z,37.44
2022-08-28T09:16:08.702Z,37.34
2022-08-28T09:18:35.012Z,36.64
2022-08-28T09:21:01.411Z,36.48
2022-08-28T09:23:30.011Z,36.95
2022-08-28T09:25:54.161Z,37.13
2022-08-28T09:28:20.561Z,37.76
2022-08-28T09:30:47.040Z,37.73
2022-08-28T09:33:13.401Z,37.95
2022-08-28T09:35:39.803Z,38.17
2022-08-28T09:38:06.229Z,38.33
2022-08-28T09:40:32.715Z,38.46
2022-08-28T09:42:59.051Z,38.21
2022-08-28T09:45:25.422Z,38.38
2022-08-28T09:47:51.871Z,38.34
2022-08-28T09:50:18.292Z,38.34
2022-08-28T09:52:44.674Z,38.67
2022-08-28T09:55:11.045Z,38.75
2022-08-28T11:28:11.604Z,39.83
2022-08-28T11:30:38.063Z,39.57
2022-08-28T11:33:04.464Z,39.69
2022-08-28T11:35:30.841Z,39.74
2022-08-28T11:37:57.210Z,39.57
2022-08-28T11:40:23.641Z,39.64
2022-08-28T11:42:49.972Z,39.48
2022-08-28T11:45:16.342Z,39.26
2022-08-28T11:47:42.739Z,38.39
2022-08-28T11:50:09.113Z,38.28
2022-08-28T11:52:35.498Z,39.13
2022-08-28T11:55:01.871Z,39.61
2022-08-28T11:57:28.320Z,39.52
2022-08-28T11:59:54.711Z,38.98
2022-08-28T12:02:21.122Z,38.84
2022-08-28T12:04:47.815Z,39.27
2022-08-28T12:07:14.166Z,39.78
2022-08-28T12:09:40.567Z,40.08
2022-08-28T12:12:06.956Z,39.85
2022-08-28T12:14:33.376Z,39.58
2022-08-28T12:16:59.744Z,39.51
2022-08-28T12:19:26.119Z,39.36
2022-08-28T12:21:52.503Z,39.21
2022-08-28T12:24:18.861Z,39.02
2022-08-28T12:26:45.232Z,38.96
2022-08-28T12:29:11.636Z,39.63
2022-08-28T12:31:38.035Z,39.94
2022-08-28T12:34:04.402Z,39.76
2022-08-28T12:36:30.793Z,39.39
2022-08-28T12:38:57.176Z,39.38
2022-08-28T12:41:23.667Z,39.54
2022-08-28T12:43:50.031Z,39.59
2022-08-28T12:46:19.379Z,39.86
2022-08-28T12:48:42.863Z,39.64
2022-08-28T12:51:09.269Z,39.37
2022-08-28T12:53:35.736Z,39.22
2022-08-28T12:56:02.091Z,39.09
2022-08-28T12:58:28.473Z,38.98
2022-08-28T13:00:54.915Z,38.89
2022-08-28T13:03:21.253Z,38.74
2022-08-28T13:05:47.617Z,38.42
2022-08-28T13:08:13.986Z,38.24
2022-08-28T13:10:40.360Z,37.81
2022-08-28T13:13:06.743Z,37.44
2022-08-28T13:15:33.118Z,37.22
2022-08-28T13:17:59.488Z,37.23
2022-08-28T13:20:25.874Z,37.12
2022-08-28T13:22:52.242Z,36.97
2022-08-28T13:25:18.616Z,36.90
2022-08-28T13:27:45.076Z,36.61
2022-08-28T13:30:11.507Z,36.55
2022-08-28T13:32:37.898Z,36.43
2022-08-28T13:35:04.251Z,36.32
2022-08-28T13:37:30.705Z,36.32
2022-08-28T13:39:57.033Z,36.16
2022-08-28T13:42:23.388Z,35.97
2022-08-28T13:44:49.756Z,36.17
2022-08-28T13:47:16.236Z,36.26
2022-08-28T13:49:42.597Z,35.94
2022-08-28T13:52:08.966Z,35.78
2022-08-28T13:54:35.467Z,35.97
2022-08-28T13:57:01.856Z,36.13
2022-08-28T13:59:28.221Z,36.09
2022-08-28T14:01:54.660Z,35.95
2022-08-28T14:04:21.071Z,35.87
2022-08-28T14:06:47.461Z,35.81
2022-08-28T14:09:13.929Z,35.79
2022-08-28T14:11:40.294Z,35.77
2022-08-28T14:14:06.655Z,35.87
2022-08-28T14:16:35.454Z,35.81
2022-08-28T14:18:59.555Z,35.81
2022-08-28T14:21:25.917Z,35.87
2022-08-28T14:23:52.307Z,35.87
2022-08-28T14:26:18.671Z,35.60
2022-08-28T14:28:45.083Z,35.55
2022-08-28T14:31:14.578Z,35.58
2022-08-28T14:33:37.848Z,35.63
2022-08-28T14:36:04.245Z,35.65
2022-08-28T14:38:30.605Z,35.40
2022-08-28T14:40:57.031Z,35.33
2022-08-28T14:43:24.009Z,35.18
2022-08-28T14:45:49.934Z,35.15
2022-08-28T14:48:16.285Z,35.17
2022-08-28T14:50:42.653Z,35.14
2022-08-28T14:53:09.058Z,35.14
2022-08-28T14:55:35.435Z,35.13
2022-08-28T14:58:01.806Z,35.06
2022-08-28T15:00:28.232Z,35.11
2022-08-28T15:02:59.756Z,35.13
2022-08-28T15:05:21.015Z,35.24
2022-08-28T15:07:47.402Z,35.30
2022-08-28T15:10:13.788Z,35.12
2022-08-28T15:12:40.171Z,34.99
2022-08-28T15:15:06.540Z,35.00
2022-08-28T15:17:33.671Z,35.03
2022-08-28T15:19:59.286Z,35.09
2022-08-28T15:22:27.403Z,35.09
2022-08-28T15:24:52.067Z,35.15
2022-08-28T15:27:18.429Z,35.11
2022-08-28T15:29:44.827Z,35.01
2022-08-28T15:32:11.191Z,34.87
2022-08-28T15:34:37.561Z,34.74
2022-08-28T15:37:03.973Z,34.56
2022-08-28T15:39:30.367Z,34.19
2022-08-28T15:41:56.731Z,33.86
2022-08-28T15:44:23.151Z,33.70
2022-08-28T15:46:49.514Z,33.61
2022-08-28T15:49:15.892Z,33.55
2022-08-28T15:51:42.308Z,33.46
2022-08-28T15:54:08.681Z,33.27
2022-08-28T15:56:35.073Z,33.12
2022-08-28T15:59:01.476Z,33.01
2022-08-28T16:01:27.921Z,32.96
2022-08-28T16:03:54.257Z,32.87
2022-08-28T16:06:20.666Z,32.78
2022-08-28T16:08:47.065Z,32.78
2022-08-28T16:11:13.427Z,32.69
2022-08-28T16:13:39.818Z,32.59
2022-08-28T16:16:06.264Z,32.53
2022-08-28T16:18:32.570Z,32.41
2022-08-28T16:21:04.151Z,32.30
2022-08-28T16:23:26.826Z,32.28
2022-08-28T16:25:53.222Z,32.27
2022-08-28T16:28:19.593Z,32.21
2022-08-28T16:30:45.991Z,32.14
2022-08-28T16:33:12.449Z,32.10
2022-08-28T16:35:38.816Z,32.07
2022-08-28T16:38:05.209Z,32.05
2022-08-28T16:40:31.724Z,32.00
2022-08-28T16:42:58.034Z,31.94
2022-08-28T16:45:24.403Z,31.92
2022-08-28T16:47:50.798Z,31.90
2022-08-28T16:50:17.283Z,31.84
2022-08-28T16:52:43.687Z,31.80
2022-08-28T16:55:10.045Z,31.68
2022-08-28T16:57:36.477Z,31.60
2022-08-28T17:00:03.591Z,31.57
2022-08-28T17:02:29.619Z,31.49
2022-08-28T17:04:55.984Z,31.41
2022-08-28T17:07:22.374Z,31.36
2022-08-28T17:09:48.739Z,31.31
2022-08-28T17:12:15.177Z,31.30
2022-08-28T17:14:41.541Z,31.25
2022-08-28T17:17:07.907Z,31.17
2022-08-28T17:19:34.284Z,31.13
2022-08-28T17:22:00.654Z,31.04
2022-08-28T17:24:27.068Z,31.00
2022-08-28T17:26:53.428Z,31.01
2022-08-28T17:29:19.824Z,31.04
2022-08-28T17:31:47.335Z,31.04
2022-08-28T17:34:13.660Z,31.00
2022-08-28T17:36:40.003Z,30.99
2022-08-28T17:39:06.374Z,30.94
2022-08-28T17:41:32.852Z,30.93
2022-08-28T17:43:59.216Z,30.90
2022-08-28T17:46:25.671Z,30.86
2022-08-28T17:48:56.142Z,30.83
2022-08-28T17:51:18.413Z,30.77
2022-08-28T17:53:44.742Z,30.70
2022-08-28T17:56:11.135Z,30.64
2022-08-28T17:58:37.690Z,30.57
2022-08-28T18:01:03.918Z,30.40
2022-08-28T18:03:30.372Z,30.34
2022-08-28T18:05:56.736Z,30.26
2022-08-28T18:08:23.113Z,30.14
2022-08-28T18:10:49.499Z,30.07
2022-08-28T18:13:15.890Z,30.06
2022-08-28T18:15:43.387Z,30.08
2022-08-28T18:18:08.894Z,30.06
2022-08-28T18:20:35.469Z,30.05
2022-08-28T18:23:02.018Z,30.00
2022-08-28T18:25:28.661Z,30.01
2022-08-28T18:27:55.309Z,30.02
2022-08-28T18:30:22.065Z,29.97
2022-08-28T18:32:48.801Z,30.00
2022-08-28T18:35:15.261Z,29.96
2022-08-28T18:37:41.837Z,29.97
2022-08-28T18:40:08.521Z,29.99
2022-08-28T18:42:35.051Z,29.97
2022-08-28T18:45:01.743Z,29.94
2022-08-28T18:47:28.385Z,29.91
2022-08-28T18:49:54.933Z,29.85
2022-08-28T18:52:21.497Z,29.86
2022-08-28T18:54:48.045Z,29.81
2022-08-28T18:57:14.406Z,29.78
2022-08-28T18:59:40.762Z,29.71
2022-08-28T19:02:07.296Z,29.63
2022-08-28T19:04:33.555Z,29.63
2022-08-28T19:06:59.989Z,29.59
2022-08-28T19:09:30.290Z,29.41
2022-08-28T19:11:52.809Z,29.40
2022-08-28T19:14:19.233Z,29.42
2022-08-28T19:16:45.611Z,29.34
2022-08-28T19:19:12.055Z,29.26
2022-08-28T19:21:38.481Z,29.29
2022-08-28T19:24:04.870Z,29.29
2022-08-28T19:26:31.269Z,29.31
2022-08-28T19:28:58.736Z,29.33
2022-08-28T19:31:25.193Z,29.22
2022-08-28T19:33:51.513Z,29.17
2022-08-28T19:36:17.925Z,29.19
2022-08-28T19:38:44.290Z,29.10
2022-08-28T19:41:10.690Z,29.10
2022-08-28T19:43:44.252Z,29.05
2022-08-28T19:46:03.683Z,29.06
2022-08-28T19:48:30.060Z,28.98
2022-08-28T19:50:56.657Z,28.96
2022-08-28T19:53:23.127Z,28.91
2022-08-28T19:55:49.608Z,28.94
2022-08-28T19:58:16.047Z,28.88
2022-08-28T20:00:42.570Z,28.82
2022-08-28T20:03:09.014Z,28.71
2022-08-28T20:05:35.363Z,28.63
2022-08-28T20:08:01.731Z,28.66
2022-08-28T20:10:28.124Z,28.63
2022-08-28T20:12:54.701Z,28.45
2022-08-28T20:15:21.185Z,28.34
2022-08-28T20:17:49.371Z,28.35
2022-08-28T20:20:14.004Z,28.20
2022-08-28T20:22:40.376Z,27.93
2022-08-28T20:25:06.875Z,27.76
2022-08-28T20:27:33.337Z,27.72
2022-08-28T20:29:59.720Z,27.79
2022-08-28T20:32:26.082Z,27.89
2022-08-28T20:34:52.604Z,27.91
2022-08-28T20:37:18.968Z,27.90
2022-08-28T20:39:45.352Z,27.85
2022-08-28T20:42:11.811Z,27.75
2022-08-28T20:44:38.232Z,27.79
2022-08-28T20:47:04.668Z,27.88
2022-08-28T20:49:31.037Z,27.86
2022-08-28T20:51:57.442Z,27.72
2022-08-28T20:54:23.824Z,27.66
2022-08-28T20:56:50.288Z,27.60
2022-08-28T20:59:16.675Z,27.60
2022-08-28T21:01:43.279Z,27.47
2022-08-28T21:04:09.593Z,27.37
2022-08-28T21:06:36.030Z,27.24
2022-08-28T21:09:02.411Z,27.17
2022-08-28T21:11:28.774Z,27.07
2022-08-28T21:13:55.218Z,26.99
2022-08-28T21:16:21.623Z,26.90
2022-08-28T21:19:14.132Z,26.87
2022-08-28T21:21:14.351Z,26.81
2022-08-28T21:23:40.741Z,26.73
2022-08-28T21:26:07.288Z,26.64
2022-08-28T21:28:33.657Z,26.55
2022-08-28T21:31:00.152Z,26.55
2022-08-28T21:33:26.432Z,26.58
2022-08-28T21:35:52.792Z,26.58
2022-08-28T21:38:19.161Z,26.63
2022-08-28T21:40:45.606Z,26.64
2022-08-28T21:43:11.933Z,26.62
2022-08-28T21:45:38.363Z,26.57
2022-08-28T21:48:04.685Z,26.55
2022-08-28T21:50:31.048Z,26.49
2022-08-28T21:52:57.417Z,26.44
2022-08-28T21:55:23.782Z,26.34
2022-08-28T21:57:50.196Z,26.29
2022-08-28T22:00:16.582Z,26.24
2022-08-28T22:02:43.105Z,26.20
2022-08-28T22:05:09.432Z,26.15
2022-08-28T22:07:35.927Z,26.07
2022-08-28T22:10:02.285Z,26.06
2022-08-28T22:12:28.692Z,25.94
2022-08-28T22:14:55.085Z,25.83
2022-08-28T22:17:21.455Z,25.79
2022-08-28T22:19:47.813Z,25.74
2022-08-28T22:22:14.198Z,25.73
2022-08-28T22:24:40.560Z,25.73
2022-08-28T22:27:06.928Z,25.61
2022-08-28T22:29:33.295Z,25.62
2022-08-28T22:31:59.706Z,25.58
2022-08-28T22:34:26.055Z,25.53
2022-08-28T22:36:52.448Z,25.56
2022-08-28T22:39:18.840Z,25.51
2022-08-28T22:41:45.277Z,25.55
2022-08-28T22:44:11.643Z,25.64
2022-08-28T22:46:38.008Z,25.70
2022-08-28T22:49:04.410Z,25.69
2022-08-28T22:51:30.758Z,25.55
2022-08-28T22:53:57.149Z,25.51
2022-08-28T22:56:23.539Z,25.47
2022-08-28T22:58:49.906Z,25.37
2022-08-28T23:01:16.330Z,25.37
2022-08-28T23:03:42.789Z,25.36
2022-08-28T23:06:09.073Z,25.41
2022-08-28T23:08:35.446Z,25.33
2022-08-28T23:11:01.821Z,25.41
2022-08-28T23:13:28.289Z,25.25
2022-08-28T23:15:54.744Z,25.23
2022-08-28T23:18:21.188Z,25.23
2022-08-28T23:20:47.523Z,25.10
2022-08-28T23:23:13.906Z,25.04
2022-08-28T23:25:40.333Z,24.95
2022-08-28T23:28:06.791Z,24.83
2022-08-28T23:30:33.153Z,24.92
2022-08-28T23:32:59.527Z,24.94
2022-08-28T23:35:25.984Z,25.05
2022-08-28T23:37:52.339Z,25.01
2022-08-28T23:40:19.180Z,24.81
2022-08-28T23:42:45.499Z,24.51
2022-08-28T23:45:11.922Z,24.61
2022-08-28T23:47:40.555Z,24.52
2022-08-28T23:50:04.679Z,24.35
2022-08-28T23:52:31.042Z,24.38
2022-08-28T23:54:57.449Z,24.44
2022-08-28T23:57:23.830Z,24.38
2022-08-28T23:59:50.316Z,24.30
